PWSweather.com
Personal Weather Stations
Station Observations
KILDUNLA3
Devonshire, Dunlap, IL 61525

DevonshireDunlap, IL 61525

Lat: 40.82881546, Lon: -89.62155914

Elevation: 758

Station Type: Oregon Scientific WMR100

http://jimroal.com

Latest ConditionsUpdated 5:01:31 AM CST Thursday, Nov 23, 2017
Currently Today's Max Today's Min Today's Average
Temperature 33.1°F0.6°C 33.1°F0.6°C 32.1°F0.1°C 32.6°F0.3°C
Dew Point 19.7°F-6.8°C 19.7°F-6.8°C 17.8°F-7.9°C 18.9°F-7.3°C
Winds 5.5 mph SSW8.9 kmh SSW 6.5 mph SSW10.5 kmh SSW - 4.4 mph 7.1 kmh
Wind Gusts 10.1 mph16.3 kmh 12.1 mph19.5 kmh - -
Humidity 57% 57% 55% 56%
Pressure 30.04 in1017.3 mb 30.16 in1021.3 mb 30.04 in1017.3 mb -
Hour Temp Dew Point Humidity Winds Wind Gusts Pressure Precip Precip Rate Daily Precip Total
05:01 AM 33.1°F0.6°C 19.7°F-6.8°C 57% 5.5 mph SSW8.9 kmh SSW 10.1 mph16.3 kmh 30.04 in1017.3 mb 0.00 in0.0 mm 0.00 in0.0 mm 0.00 in0.0 mm
04:56 AM 33.1°F0.6°C 19.7°F-6.8°C 57% 4.1 mph S6.6 kmh S 10.1 mph16.3 kmh 30.04 in1017.3 mb 0.00 in0.0 mm 0.00 in0.0 mm 0.00 in0.0 mm
04:51 AM 33.1°F0.6°C 19.7°F-6.8°C 57% 4.3 mph S6.9 kmh S 10.1 mph16.3 kmh 30.04 in1017.3 mb 0.00 in0.0 mm 0.00 in0.0 mm 0.00 in0.0 mm
04:46 AM 33.1°F0.6°C 19.7°F-6.8°C 57% 5.8 mph S9.3 kmh S 10.7 mph17.2 kmh 30.04 in1017.3 mb 0.00 in0.0 mm 0.00 in0.0 mm 0.00 in0.0 mm
04:41 AM 33.1°F0.6°C 19.7°F-6.8°C 57% 6.5 mph SSW10.5 kmh SSW 10.7 mph17.2 kmh 30.05 in1017.6 mb 0.00 in0.0 mm 0.00 in0.0 mm 0.00 in0.0 mm
04:36 AM 33.0°F0.6°C 19.6°F-6.9°C 57% 5.3 mph SSW8.5 kmh SSW 9.8 mph15.8 kmh 30.05 in1017.6 mb 0.00 in0.0 mm 0.00 in0.0 mm 0.00 in0.0 mm
04:31 AM 32.9°F0.5°C 19.5°F-6.9°C 57% 4.1 mph SSE6.6 kmh SSE 10.1 mph16.3 kmh 30.05 in1017.6 mb 0.00 in0.0 mm 0.00 in0.0 mm 0.00 in0.0 mm
04:26 AM 32.9°F0.5°C 19.5°F-6.9°C 57% 6.2 mph S10.0 kmh S 10.1 mph16.3 kmh 30.05 in1017.6 mb 0.00 in0.0 mm 0.00 in0.0 mm 0.00 in0.0 mm
04:21 AM 32.8°F0.4°C 19.4°F-7.0°C 57% 4.1 mph SSE6.6 kmh SSE 8.9 mph14.3 kmh 30.05 in1017.6 mb 0.00 in0.0 mm 0.00 in0.0 mm 0.00 in0.0 mm
04:16 AM 32.7°F0.4°C 19.3°F-7.1°C 57% 4.0 mph S6.4 kmh S 10.7 mph17.2 kmh 30.05 in1017.6 mb 0.00 in0.0 mm 0.00 in0.0 mm 0.00 in0.0 mm
04:11 AM 32.7°F0.4°C 19.3°F-7.1°C 57% 5.6 mph S9.0 kmh S 10.7 mph17.2 kmh 30.05 in1017.6 mb 0.00 in0.0 mm 0.00 in0.0 mm 0.00 in0.0 mm
04:06 AM 32.7°F0.4°C 19.3°F-7.1°C 57% 5.0 mph S8.0 kmh S 8.9 mph14.3 kmh 30.05 in1017.6 mb 0.00 in0.0 mm 0.00 in0.0 mm 0.00 in0.0 mm
04:01 AM 32.7°F0.4°C 19.3°F-7.1°C 57% 4.7 mph S7.6 kmh S 8.9 mph14.3 kmh 30.06 in1017.9 mb 0.00 in0.0 mm 0.00 in0.0 mm 0.00 in0.0 mm
03:56 AM 32.7°F0.4°C 19.3°F-7.1°C 57% 4.8 mph S7.7 kmh S 8.5 mph13.7 kmh 30.06 in1017.9 mb 0.00 in0.0 mm 0.00 in0.0 mm 0.00 in0.0 mm
03:51 AM 32.5°F0.3°C 19.2°F-7.1°C 57% 4.7 mph S7.6 kmh S 10.1 mph16.3 kmh 30.06 in1017.9 mb 0.00 in0.0 mm 0.00 in0.0 mm 0.00 in0.0 mm
03:46 AM 32.6°F0.3°C 19.2°F-7.1°C 57% 5.5 mph S8.9 kmh S 11.0 mph17.7 kmh 30.06 in1017.9 mb 0.00 in0.0 mm 0.00 in0.0 mm 0.00 in0.0 mm
03:41 AM 32.7°F0.4°C 19.3°F-7.1°C 57% 5.6 mph S9.0 kmh S 11.0 mph17.7 kmh 30.06 in1017.9 mb 0.00 in0.0 mm 0.00 in0.0 mm 0.00 in0.0 mm
03:36 AM 32.7°F0.4°C 19.3°F-7.1°C 57% 5.5 mph S8.9 kmh S 12.1 mph19.5 kmh 30.07 in1018.3 mb 0.00 in0.0 mm 0.00 in0.0 mm 0.00 in0.0 mm
03:31 AM 32.7°F0.4°C 19.3°F-7.1°C 57% 5.5 mph S8.9 kmh S 12.1 mph19.5 kmh 30.07 in1018.3 mb 0.00 in0.0 mm 0.00 in0.0 mm 0.00 in0.0 mm
03:26 AM 32.7°F0.4°C 19.1°F-7.2°C 57% 5.2 mph S8.4 kmh S 7.8 mph12.6 kmh 30.07 in1018.3 mb 0.00 in0.0 mm 0.00 in0.0 mm 0.00 in0.0 mm
03:21 AM 32.7°F0.4°C 18.9°F-7.3°C 56% 4.7 mph S7.6 kmh S 8.5 mph13.7 kmh 30.08 in1018.6 mb 0.00 in0.0 mm 0.00 in0.0 mm 0.00 in0.0 mm
03:16 AM 32.7°F0.4°C 18.9°F-7.3°C 56% 4.9 mph S7.9 kmh S 8.5 mph13.7 kmh 30.08 in1018.6 mb 0.00 in0.0 mm 0.00 in0.0 mm 0.00 in0.0 mm
03:11 AM 32.7°F0.4°C 18.9°F-7.3°C 56% 3.6 mph S5.8 kmh S 10.5 mph16.9 kmh 30.08 in1018.6 mb 0.00 in0.0 mm 0.00 in0.0 mm 0.00 in0.0 mm
03:06 AM 32.7°F0.4°C 18.9°F-7.3°C 56% 5.7 mph S9.2 kmh S 10.5 mph16.9 kmh 30.09 in1019.0 mb 0.00 in0.0 mm 0.00 in0.0 mm 0.00 in0.0 mm
03:01 AM 32.7°F0.4°C 18.9°F-7.3°C 56% 3.5 mph S5.6 kmh S 8.5 mph13.7 kmh 30.09 in1019.0 mb 0.00 in0.0 mm 0.00 in0.0 mm 0.00 in0.0 mm
02:56 AM 32.7°F0.4°C 18.9°F-7.3°C 56% 5.1 mph S8.2 kmh S 8.5 mph13.7 kmh 30.09 in1019.0 mb 0.00 in0.0 mm 0.00 in0.0 mm 0.00 in0.0 mm
02:51 AM 32.7°F0.4°C 18.9°F-7.3°C 56% 4.2 mph S6.8 kmh S 8.1 mph13.0 kmh 30.10 in1019.3 mb 0.00 in0.0 mm 0.00 in0.0 mm 0.00 in0.0 mm
02:46 AM 32.7°F0.4°C 18.9°F-7.3°C 56% 3.6 mph S5.8 kmh S 9.8 mph15.8 kmh 30.10 in1019.3 mb 0.00 in0.0 mm 0.00 in0.0 mm 0.00 in0.0 mm
02:41 AM 32.7°F0.4°C 18.9°F-7.3°C 56% 5.0 mph S8.0 kmh S 9.8 mph15.8 kmh 30.09 in1019.0 mb 0.00 in0.0 mm 0.00 in0.0 mm 0.00 in0.0 mm
02:36 AM 32.7°F0.4°C 18.9°F-7.3°C 56% 5.8 mph S9.3 kmh S 10.5 mph16.9 kmh 30.10 in1019.3 mb 0.00 in0.0 mm 0.00 in0.0 mm 0.00 in0.0 mm
02:31 AM 32.7°F0.4°C 18.9°F-7.3°C 56% 5.1 mph S8.2 kmh S 10.5 mph16.9 kmh 30.10 in1019.3 mb 0.00 in0.0 mm 0.00 in0.0 mm 0.00 in0.0 mm
02:26 AM 32.7°F0.4°C 18.9°F-7.3°C 56% 4.9 mph S7.9 kmh S 10.3 mph16.6 kmh 30.11 in1019.6 mb 0.00 in0.0 mm 0.00 in0.0 mm 0.00 in0.0 mm
02:21 AM 32.7°F0.4°C 18.9°F-7.3°C 56% 4.7 mph S7.6 kmh S 8.5 mph13.7 kmh 30.11 in1019.6 mb 0.00 in0.0 mm 0.00 in0.0 mm 0.00 in0.0 mm
02:16 AM 32.7°F0.4°C 18.9°F-7.3°C 56% 4.9 mph SSW7.9 kmh SSW 8.1 mph13.0 kmh 30.12 in1020.0 mb 0.00 in0.0 mm 0.00 in0.0 mm 0.00 in0.0 mm
02:11 AM 32.7°F0.4°C 18.9°F-7.3°C 56% 5.2 mph S8.4 kmh S 6.0 mph9.7 kmh 30.12 in1020.0 mb 0.00 in0.0 mm 0.00 in0.0 mm 0.00 in0.0 mm
02:06 AM 32.7°F0.4°C 18.9°F-7.3°C 56% 3.3 mph S5.3 kmh S 5.8 mph9.3 kmh 30.12 in1020.0 mb 0.00 in0.0 mm 0.00 in0.0 mm 0.00 in0.0 mm
02:01 AM 32.7°F0.4°C 18.9°F-7.3°C 56% 3.6 mph SSW5.8 kmh SSW 6.5 mph10.5 kmh 30.13 in1020.3 mb 0.00 in0.0 mm 0.00 in0.0 mm 0.00 in0.0 mm
01:56 AM 32.7°F0.4°C 18.9°F-7.3°C 56% 3.7 mph S6.0 kmh S 6.5 mph10.5 kmh 30.12 in1020.0 mb 0.00 in0.0 mm 0.00 in0.0 mm 0.00 in0.0 mm
01:51 AM 32.7°F0.4°C 18.9°F-7.3°C 56% 4.1 mph S6.6 kmh S 6.5 mph10.5 kmh 30.12 in1020.0 mb 0.00 in0.0 mm 0.00 in0.0 mm 0.00 in0.0 mm
01:46 AM 32.7°F0.4°C 18.8°F-7.3°C 56% 4.4 mph SSW7.1 kmh SSW 6.5 mph10.5 kmh 30.13 in1020.3 mb 0.00 in0.0 mm 0.00 in0.0 mm 0.00 in0.0 mm
01:41 AM 32.5°F0.3°C 18.7°F-7.4°C 56% 3.4 mph SSW5.5 kmh SSW 6.5 mph10.5 kmh 30.13 in1020.3 mb 0.00 in0.0 mm 0.00 in0.0 mm 0.00 in0.0 mm
01:36 AM 32.5°F0.3°C 18.7°F-7.4°C 56% 3.9 mph S6.3 kmh S 9.6 mph15.4 kmh 30.13 in1020.3 mb 0.00 in0.0 mm 0.00 in0.0 mm 0.00 in0.0 mm
01:31 AM 32.5°F0.3°C 18.7°F-7.4°C 56% 5.1 mph SSW8.2 kmh SSW 9.6 mph15.4 kmh 30.13 in1020.3 mb 0.00 in0.0 mm 0.00 in0.0 mm 0.00 in0.0 mm
01:26 AM 32.4°F0.2°C 18.6°F-7.4°C 56% 4.2 mph S6.8 kmh S 6.3 mph10.1 kmh 30.14 in1020.7 mb 0.00 in0.0 mm 0.00 in0.0 mm 0.00 in0.0 mm
01:21 AM 32.4°F0.2°C 18.5°F-7.5°C 56% 3.6 mph S5.8 kmh S 6.0 mph9.7 kmh 30.14 in1020.7 mb 0.00 in0.0 mm 0.00 in0.0 mm 0.00 in0.0 mm
01:16 AM 32.2°F0.1°C 18.4°F-7.6°C 56% 3.0 mph S4.8 kmh S 5.4 mph8.7 kmh 30.14 in1020.7 mb 0.00 in0.0 mm 0.00 in0.0 mm 0.00 in0.0 mm
01:11 AM 32.2°F0.1°C 18.4°F-7.6°C 56% 2.7 mph S4.3 kmh S 5.4 mph8.7 kmh 30.14 in1020.7 mb 0.00 in0.0 mm 0.00 in0.0 mm 0.00 in0.0 mm
01:06 AM 32.2°F0.1°C 18.4°F-7.6°C 56% 2.8 mph S4.5 kmh S 4.3 mph6.9 kmh 30.14 in1020.7 mb 0.00 in0.0 mm 0.00 in0.0 mm 0.00 in0.0 mm
01:01 AM 32.2°F0.1°C 18.4°F-7.6°C 56% 2.9 mph S4.7 kmh S 4.5 mph7.2 kmh 30.14 in1020.7 mb 0.00 in0.0 mm 0.00 in0.0 mm 0.00 in0.0 mm
12:56 AM 32.2°F0.1°C 18.4°F-7.6°C 56% 2.3 mph S3.7 kmh S 4.5 mph7.2 kmh 30.14 in1020.7 mb 0.00 in0.0 mm 0.00 in0.0 mm 0.00 in0.0 mm
12:51 AM 32.1°F0.1°C 18.1°F-7.7°C 56% 3.1 mph S5.0 kmh S 5.6 mph9.0 kmh 30.14 in1020.7 mb 0.00 in0.0 mm 0.00 in0.0 mm 0.00 in0.0 mm
12:46 AM 32.1°F0.1°C 17.8°F-7.9°C 55% 3.8 mph SSW6.1 kmh SSW 5.6 mph9.0 kmh 30.14 in1020.7 mb 0.00 in0.0 mm 0.00 in0.0 mm 0.00 in0.0 mm
12:41 AM 32.3°F0.2°C 18.0°F-7.8°C 55% 3.5 mph SSW5.6 kmh SSW 6.3 mph10.1 kmh 30.14 in1020.7 mb 0.00 in0.0 mm 0.00 in0.0 mm 0.00 in0.0 mm
12:36 AM 32.5°F0.3°C 18.2°F-7.7°C 55% 3.1 mph S5.0 kmh S 6.3 mph10.1 kmh 30.15 in1021.0 mb 0.00 in0.0 mm 0.00 in0.0 mm 0.00 in0.0 mm
12:31 AM 32.6°F0.3°C 18.3°F-7.6°C 55% 3.3 mph S5.3 kmh S 5.6 mph9.0 kmh 30.15 in1021.0 mb 0.00 in0.0 mm 0.00 in0.0 mm 0.00 in0.0 mm
12:26 AM 32.7°F0.4°C 18.4°F-7.6°C 55% 3.5 mph SSW5.6 kmh SSW 6.3 mph10.1 kmh 30.14 in1020.7 mb 0.00 in0.0 mm 0.00 in0.0 mm 0.00 in0.0 mm
12:21 AM 32.5°F0.3°C 18.2°F-7.7°C 55% 4.0 mph S6.4 kmh S 6.7 mph10.8 kmh 30.15 in1021.0 mb 0.00 in0.0 mm 0.00 in0.0 mm 0.00 in0.0 mm
12:16 AM 32.5°F0.3°C 18.2°F-7.7°C 55% 3.8 mph S6.1 kmh S 7.8 mph12.6 kmh 30.15 in1021.0 mb 0.00 in0.0 mm 0.00 in0.0 mm 0.00 in0.0 mm
12:11 AM 32.5°F0.3°C 18.2°F-7.7°C 55% 4.6 mph S7.4 kmh S 8.5 mph13.7 kmh 30.15 in1021.0 mb 0.00 in0.0 mm 0.00 in0.0 mm 0.00 in0.0 mm
12:06 AM 32.5°F0.3°C 18.2°F-7.7°C 55% 4.2 mph S6.8 kmh S 8.5 mph13.7 kmh 30.15 in1021.0 mb 0.00 in0.0 mm 0.00 in0.0 mm 0.00 in0.0 mm
12:01 AM 32.5°F0.3°C 18.2°F-7.7°C 55% 3.8 mph SSE6.1 kmh SSE 6.0 mph9.7 kmh 30.16 in1021.3 mb 0.00 in0.0 mm 0.00 in0.0 mm 0.00 in0.0 mm